Elba, Minnesota
Current Conditions -  °F | °C
As of 6:14 AM on Friday 21 Nov 2014 (Local Time) from KONA Reporting Station
Clear Clear  
Wind Chill:   Ceiling: Unl
Heat Index:   Visibility: 10mi
Dew Point:   Wind: 0mph
Humidity: 85%   Direction: NA
Pressure: 30.33"   Gusts: NA
Location:  44.1503°N, 91.9879°W
Report Text: KONA 211214Z AUTO 00000KT 10SM CLR M13/M15 A3033 RMK AO2
Loading
Personal Weather Stations






























Interactive Weather Map New forecast layout! Learn more

10-Day Weather Forecast

Advertisements
Track Severe Weather on mobile